createdAt,value
2023-03-28T00:04:41.998Z,-2.61
2023-03-28T00:09:45.181Z,-2.62
2023-03-28T00:14:49.912Z,-2.62
2023-03-28T00:19:53.536Z,-2.62
2023-03-28T00:24:57.198Z,-2.62
2023-03-28T00:30:00.924Z,-2.61
2023-03-28T00:35:09.715Z,-2.61
2023-03-28T00:40:15.886Z,-2.61
2023-03-28T00:45:21.551Z,-2.58
2023-03-28T00:50:31.592Z,-2.49
2023-03-28T00:55:46.205Z,-2.36
2023-03-28T01:01:06.157Z,-2.29
2023-03-28T01:06:16.394Z,-2.28
2023-03-28T01:11:21.205Z,-2.30
2023-03-28T01:16:24.298Z,-2.33
2023-03-28T01:21:50.832Z,-2.36
2023-03-28T01:27:15.646Z,-2.37
2023-03-28T01:32:55.504Z,-2.39
2023-03-28T01:38:52.532Z,-2.42
2023-03-28T01:44:19.003Z,-2.47
2023-03-28T01:49:49.798Z,-2.51
2023-03-28T01:55:09.438Z,-2.55
2023-03-28T02:00:36.853Z,-2.51
2023-03-28T02:05:45.499Z,-2.43
2023-03-28T02:10:56.488Z,-2.36
2023-03-28T02:16:23.590Z,-2.32
2023-03-28T02:22:16.602Z,-2.35
2023-03-28T02:27:35.032Z,-2.40
2023-03-28T02:33:06.256Z,-2.44
2023-03-28T02:38:31.080Z,-2.50
2023-03-28T02:43:48.040Z,-2.55
2023-03-28T02:49:14.481Z,-2.60
2023-03-28T02:54:35.927Z,-2.63
2023-03-28T03:00:16.685Z,-2.62
2023-03-28T03:05:20.852Z,-2.58
2023-03-28T03:10:23.347Z,-2.52
2023-03-28T03:15:32.863Z,-2.41
2023-03-28T03:20:51.829Z,-2.27
2023-03-28T03:25:56.509Z,-2.11
2023-03-28T03:31:06.900Z,-1.95
2023-03-28T03:36:13.642Z,-1.85
2023-03-28T03:41:16.421Z,-1.75
2023-03-28T03:46:19.540Z,-1.71
2023-03-28T03:51:22.948Z,-1.65
2023-03-28T03:56:32.553Z,-1.57
2023-03-28T04:01:36.379Z,-1.48
2023-03-28T04:07:06.215Z,-1.40
2023-03-28T04:12:11.790Z,-1.30
2023-03-28T04:17:30.306Z,-1.18
2023-03-28T04:22:45.497Z,-1.03
2023-03-28T04:28:00.035Z,-0.91
2023-03-28T04:33:06.007Z,-0.82
2023-03-28T04:38:20.722Z,-0.74
2023-03-28T04:43:32.617Z,-0.70
2023-03-28T04:48:44.915Z,-0.66
2023-03-28T04:54:28.521Z,-0.63
2023-03-28T05:00:27.990Z,-0.66
2023-03-28T05:06:02.367Z,-0.52
2023-03-28T05:11:11.202Z,-0.33
2023-03-28T05:16:16.698Z,-0.20
2023-03-28T05:21:19.065Z,-0.12
2023-03-28T05:26:30.989Z,-0.07
2023-03-28T05:31:44.717Z,0.00
2023-03-28T05:36:58.692Z,0.09
2023-03-28T05:42:23.920Z,0.16
2023-03-28T05:47:27.155Z,0.17
2023-03-28T05:52:32.542Z,0.27
2023-03-28T05:57:57.597Z,0.41
2023-03-28T06:03:40.403Z,0.46
2023-03-28T06:09:19.523Z,0.51
2023-03-28T06:14:46.740Z,0.55
2023-03-28T06:20:11.273Z,0.66
2023-03-28T06:25:28.485Z,0.91
2023-03-28T06:30:31.352Z,0.93
2023-03-28T06:35:55.330Z,0.67
2023-03-28T06:41:25.779Z,0.05
2023-03-28T06:46:32.298Z,-0.37
2023-03-28T06:51:43.636Z,-0.48
2023-03-28T06:57:10.406Z,-0.40
2023-03-28T07:02:19.849Z,-0.24
2023-03-28T07:07:23.693Z,-0.11
2023-03-28T07:12:35.419Z,0.01
2023-03-28T07:17:38.623Z,0.22
2023-03-28T07:23:06.727Z,0.41
2023-03-28T07:28:24.320Z,0.49
2023-03-28T07:33:40.712Z,0.54
2023-03-28T07:38:48.967Z,0.74
2023-03-28T07:44:08.607Z,1.06
2023-03-28T07:49:20.694Z,1.47
2023-03-28T07:54:48.943Z,1.47
2023-03-28T07:59:57.694Z,1.32
2023-03-28T08:05:16.884Z,1.53
2023-03-28T08:10:24.427Z,1.65
2023-03-28T08:15:36.947Z,1.48
2023-03-28T08:20:58.453Z,1.43
2023-03-28T08:26:07.736Z,1.38
2023-03-28T08:31:23.533Z,1.47
2023-03-28T08:36:37.772Z,1.57
2023-03-28T08:42:41.458Z,1.71
2023-03-28T08:48:11.677Z,1.93
2023-03-28T08:53:37.533Z,1.65
2023-03-28T08:59:25.652Z,1.21
2023-03-28T09:04:52.771Z,1.22
2023-03-28T09:11:19.091Z,1.50
2023-03-28T09:17:27.193Z,1.68
2023-03-28T09:23:31.935Z,1.69
2023-03-28T09:29:23.529Z,1.96
2023-03-28T09:34:30.633Z,2.18
2023-03-28T09:39:59.554Z,2.27
2023-03-28T09:45:37.263Z,2.12
2023-03-28T09:51:48.827Z,2.00
2023-03-28T09:57:16.157Z,2.04
2023-03-28T10:02:36.092Z,1.94
2023-03-28T10:08:22.795Z,1.84
2023-03-28T10:14:17.161Z,2.08
2023-03-28T10:19:40.113Z,2.64
2023-03-28T10:25:04.243Z,2.75
2023-03-28T10:30:42.160Z,2.52
2023-03-28T10:36:03.042Z,2.20
2023-03-28T10:41:55.119Z,2.23
2023-03-28T10:47:57.891Z,2.38
2023-03-28T10:54:12.597Z,2.62
2023-03-28T10:59:54.858Z,3.02
2023-03-28T11:05:38.384Z,3.04
2023-03-28T11:11:33.491Z,1.96
2023-03-28T11:17:47.549Z,0.98
2023-03-28T11:24:19.180Z,0.82
2023-03-28T11:30:42.397Z,1.10
2023-03-28T11:36:01.541Z,1.42
2023-03-28T11:41:26.214Z,1.95
2023-03-28T11:47:23.638Z,2.66
2023-03-28T11:53:26.957Z,2.73
2023-03-28T11:59:02.627Z,1.98
2023-03-28T12:04:28.298Z,1.28
2023-03-28T12:10:06.728Z,0.92
2023-03-28T12:16:09.901Z,0.92
2023-03-28T12:22:35.403Z,1.04
2023-03-28T12:28:22.442Z,1.13
2023-03-28T12:34:32.503Z,1.25
2023-03-28T12:40:14.673Z,1.50
2023-03-28T12:45:36.298Z,1.63
2023-03-28T12:51:25.725Z,1.66
2023-03-28T12:58:00.842Z,1.78
2023-03-28T13:04:24.601Z,2.07
2023-03-28T13:10:10.627Z,2.18
2023-03-28T13:15:53.210Z,2.20
2023-03-28T13:21:30.303Z,2.36
2023-03-28T13:27:17.121Z,2.52
2023-03-28T13:32:34.691Z,2.83
2023-03-28T13:37:51.099Z,2.86
2023-03-28T13:43:07.300Z,2.53
2023-03-28T13:49:26.050Z,1.65
2023-03-28T13:54:46.443Z,1.02
2023-03-28T14:00:08.804Z,0.92
2023-03-28T14:05:28.748Z,0.88
2023-03-28T14:10:36.035Z,0.89
2023-03-28T14:15:40.724Z,1.00
2023-03-28T14:20:54.467Z,1.09
2023-03-28T14:26:07.334Z,1.20
2023-03-28T14:31:27.279Z,1.23
2023-03-28T14:36:33.758Z,0.90
2023-03-28T14:41:37.523Z,0.76
2023-03-28T14:46:40.468Z,0.80
2023-03-28T14:51:45.162Z,0.81
2023-03-28T14:56:48.032Z,0.51
2023-03-28T15:01:51.878Z,0.24
2023-03-28T15:07:01.486Z,0.13
2023-03-28T15:12:12.170Z,0.08
2023-03-28T15:17:22.504Z,-0.01
2023-03-28T15:22:34.923Z,0.09
2023-03-28T15:27:53.137Z,0.29
2023-03-28T15:33:02.230Z,0.48
2023-03-28T15:38:41.606Z,0.61
2023-03-28T15:44:31.317Z,0.75
2023-03-28T15:49:38.485Z,0.90
2023-03-28T15:54:44.721Z,1.10
2023-03-28T15:59:56.209Z,1.26
2023-03-28T16:05:09.921Z,1.29
2023-03-28T16:10:19.671Z,1.14
2023-03-28T16:15:53.992Z,0.81
2023-03-28T16:21:15.070Z,0.60
2023-03-28T16:26:17.416Z,0.41
2023-03-28T16:31:25.158Z,0.21
2023-03-28T16:36:27.859Z,0.10
2023-03-28T16:41:30.309Z,-0.01
2023-03-28T16:46:33.295Z,-0.08
2023-03-28T16:51:41.087Z,-0.13
2023-03-28T16:56:54.652Z,-0.20
2023-03-28T17:01:58.163Z,-0.25
2023-03-28T17:07:00.290Z,-0.29
2023-03-28T17:12:04.370Z,-0.27
2023-03-28T17:17:06.887Z,-0.24
2023-03-28T17:22:18.788Z,-0.17
2023-03-28T17:27:22.648Z,-0.16
2023-03-28T17:32:25.977Z,-0.20
2023-03-28T17:37:31.608Z,-0.24
2023-03-28T17:42:34.386Z,-0.30
2023-03-28T17:47:39.457Z,-0.34
2023-03-28T17:52:41.582Z,-0.40
2023-03-28T17:57:43.798Z,-0.41
2023-03-28T18:02:46.688Z,-0.43
2023-03-28T18:08:04.647Z,-0.47
2023-03-28T18:13:09.575Z,-0.52
2023-03-28T18:18:14.720Z,-0.57
2023-03-28T18:23:24.333Z,-0.62
2023-03-28T18:28:29.642Z,-0.71
2023-03-28T18:33:37.569Z,-0.80
2023-03-28T18:38:42.733Z,-0.89
2023-03-28T18:43:45.749Z,-0.98
2023-03-28T18:48:50.820Z,-1.06
2023-03-28T18:53:54.068Z,-1.12
2023-03-28T18:58:59.058Z,-1.16
2023-03-28T19:04:01.447Z,-1.18
2023-03-28T19:09:14.252Z,-1.21
2023-03-28T19:14:19.333Z,-1.27
2023-03-28T19:19:23.614Z,-1.34
2023-03-28T19:24:25.815Z,-1.40
2023-03-28T19:29:28.535Z,-1.49
2023-03-28T19:34:30.660Z,-1.56
2023-03-28T19:39:38.184Z,-1.62
2023-03-28T19:44:46.977Z,-1.71
2023-03-28T19:49:53.126Z,-1.81
2023-03-28T19:55:04.543Z,-1.87
2023-03-28T20:00:23.133Z,-1.94
2023-03-28T20:05:27.870Z,-2.02
2023-03-28T20:10:32.641Z,-2.09
2023-03-28T20:15:41.191Z,-2.17
2023-03-28T20:20:43.699Z,-2.27
2023-03-28T20:25:47.729Z,-2.35
2023-03-28T20:30:51.612Z,-2.45
2023-03-28T20:35:58.810Z,-2.52
2023-03-28T20:41:01.857Z,-2.58
2023-03-28T20:46:04.969Z,-2.65
2023-03-28T20:51:18.779Z,-2.72
2023-03-28T20:56:21.948Z,-2.79
2023-03-28T21:01:27.972Z,-2.85
2023-03-28T21:06:36.531Z,-2.92
2023-03-28T21:12:04.235Z,-2.95
2023-03-28T21:17:08.752Z,-3.00
2023-03-28T21:22:11.727Z,-3.04
2023-03-28T21:27:15.852Z,-3.11
2023-03-28T21:32:18.084Z,-3.18
2023-03-28T21:37:20.957Z,-3.25
2023-03-28T21:42:24.921Z,-3.33
2023-03-28T21:47:27.970Z,-3.42
2023-03-28T21:52:33.257Z,-3.50
2023-03-28T21:57:36.723Z,-3.52
2023-03-28T22:02:39.119Z,-3.58
2023-03-28T22:07:44.659Z,-3.66
2023-03-28T22:12:49.085Z,-3.73
2023-03-28T22:17:51.121Z,-3.78
2023-03-28T22:22:53.907Z,-3.81
2023-03-28T22:27:58.143Z,-3.83
2023-03-28T22:33:00.877Z,-3.85
2023-03-28T22:38:04.193Z,-3.86
2023-03-28T22:43:07.117Z,-3.88
2023-03-28T22:48:14.548Z,-3.89
2023-03-28T22:53:22.780Z,-3.92
2023-03-28T22:58:26.249Z,-3.91
2023-03-28T23:03:32.493Z,-3.91
2023-03-28T23:08:37.812Z,-3.94
2023-03-28T23:13:44.161Z,-3.96
2023-03-28T23:18:49.979Z,-3.97
2023-03-28T23:23:54.990Z,-3.95
2023-03-28T23:29:02.201Z,-3.95
2023-03-28T23:34:04.598Z,-3.99
2023-03-28T23:39:07.341Z,-4.07
2023-03-28T23:44:09.969Z,-4.15
2023-03-28T23:49:20.032Z,-4.22
2023-03-28T23:55:02.368Z,-4.29
